sensor_id;sensor_type;location;lat;lon;timestamp;pressure;altitude;pressure_sealevel;temperature;humidity
64711;BME280;51139;45.626;6.850;2023-02-13T00:00:41;83233.09;;;2.53;46.07
64711;BME280;51139;45.626;6.850;2023-02-13T00:03:07;83241.66;;;2.59;45.04
64711;BME280;51139;45.626;6.850;2023-02-13T00:05:32;83241.41;;;2.57;45.35
64711;BME280;51139;45.626;6.850;2023-02-13T00:07:58;83236.41;;;2.48;44.88
64711;BME280;51139;45.626;6.850;2023-02-13T00:10:23;83238.31;;;2.53;44.17
64711;BME280;51139;45.626;6.850;2023-02-13T00:12:49;83240.69;;;2.45;44.70
64711;BME280;51139;45.626;6.850;2023-02-13T00:15:14;83247.09;;;2.27;45.71
64711;BME280;51139;45.626;6.850;2023-02-13T00:17:39;83242.06;;;2.12;46.48
64711;BME280;51139;45.626;6.850;2023-02-13T00:20:05;83237.28;;;2.11;46.30
64711;BME280;51139;45.626;6.850;2023-02-13T00:22:35;83236.59;;;2.10;46.92
64711;BME280;51139;45.626;6.850;2023-02-13T00:25:01;83232.78;;;2.06;46.38
64711;BME280;51139;45.626;6.850;2023-02-13T00:27:26;83242.03;;;2.01;46.93
64711;BME280;51139;45.626;6.850;2023-02-13T00:29:52;83233.50;;;2.06;45.91
64711;BME280;51139;45.626;6.850;2023-02-13T00:32:17;83230.88;;;2.06;46.40
64711;BME280;51139;45.626;6.850;2023-02-13T00:34:42;83225.38;;;1.98;46.20
64711;BME280;51139;45.626;6.850;2023-02-13T00:37:08;83232.00;;;1.88;46.19
64711;BME280;51139;45.626;6.850;2023-02-13T00:39:34;83232.00;;;1.88;46.97
64711;BME280;51139;45.626;6.850;2023-02-13T00:41:59;83235.13;;;1.92;46.55
64711;BME280;51139;45.626;6.850;2023-02-13T00:44:24;83232.03;;;1.94;47.00
64711;BME280;51139;45.626;6.850;2023-02-13T00:46:50;83235.38;;;2.00;46.96
64711;BME280;51139;45.626;6.850;2023-02-13T00:49:15;83233.94;;;1.93;46.89
64711;BME280;51139;45.626;6.850;2023-02-13T00:51:40;83233.72;;;1.97;47.25
64711;BME280;51139;45.626;6.850;2023-02-13T00:54:06;83239.41;;;1.89;46.91
64711;BME280;51139;45.626;6.850;2023-02-13T00:56:32;83237.53;;;2.07;46.96
64711;BME280;51139;45.626;6.850;2023-02-13T00:58:57;83228.47;;;1.97;47.23
64711;BME280;51139;45.626;6.850;2023-02-13T01:01:23;83236.78;;;1.95;46.90
64711;BME280;51139;45.626;6.850;2023-02-13T01:03:48;83228.47;;;1.85;46.67
64711;BME280;51139;45.626;6.850;2023-02-13T01:06:14;83230.34;;;1.85;47.09
64711;BME280;51139;45.626;6.850;2023-02-13T01:08:39;83240.78;;;1.85;47.12
64711;BME280;51139;45.626;6.850;2023-02-13T01:11:06;83238.22;;;1.91;46.84
64711;BME280;51139;45.626;6.850;2023-02-13T01:13:32;83236.03;;;1.78;47.28
64711;BME280;51139;45.626;6.850;2023-02-13T01:15:57;83236.25;;;1.80;46.83
64711;BME280;51139;45.626;6.850;2023-02-13T01:18:23;83238.91;;;1.91;47.11
64711;BME280;51139;45.626;6.850;2023-02-13T01:20:57;83235.84;;;1.98;46.15
64711;BME280;51139;45.626;6.850;2023-02-13T01:23:22;83241.81;;;2.10;46.46
64711;BME280;51139;45.626;6.850;2023-02-13T01:25:48;83244.16;;;2.02;46.28
64711;BME280;51139;45.626;6.850;2023-02-13T01:28:16;83234.69;;;2.11;46.07
64711;BME280;51139;45.626;6.850;2023-02-13T01:30:42;83243.47;;;2.08;46.32
64711;BME280;51139;45.626;6.850;2023-02-13T01:33:10;83244.41;;;2.04;46.35
64711;BME280;51139;45.626;6.850;2023-02-13T01:35:38;83243.63;;;1.75;46.70
64711;BME280;51139;45.626;6.850;2023-02-13T01:38:03;83236.75;;;1.84;46.60
64711;BME280;51139;45.626;6.850;2023-02-13T01:40:29;83238.66;;;1.83;46.74
64711;BME280;51139;45.626;6.850;2023-02-13T01:42:54;83247.44;;;1.86;47.28
64711;BME280;51139;45.626;6.850;2023-02-13T01:45:27;83238.44;;;1.87;46.83
64711;BME280;51139;45.626;6.850;2023-02-13T01:48:11;83244.63;;;1.95;46.94
64711;BME280;51139;45.626;6.850;2023-02-13T01:50:46;83247.47;;;1.97;46.65
64711;BME280;51139;45.626;6.850;2023-02-13T01:53:25;83250.41;;;2.22;45.49
64711;BME280;51139;45.626;6.850;2023-02-13T01:55:55;83251.56;;;2.04;44.70
64711;BME280;51139;45.626;6.850;2023-02-13T01:58:25;83244.38;;;1.93;46.10
64711;BME280;51139;45.626;6.850;2023-02-13T02:00:51;83251.25;;;1.79;46.71
64711;BME280;51139;45.626;6.850;2023-02-13T02:03:23;83254.81;;;1.87;46.10
64711;BME280;51139;45.626;6.850;2023-02-13T02:05:53;83255.78;;;1.90;45.53
64711;BME280;51139;45.626;6.850;2023-02-13T02:08:21;83249.16;;;2.00;45.63
64711;BME280;51139;45.626;6.850;2023-02-13T02:10:47;83246.28;;;1.93;45.57
64711;BME280;51139;45.626;6.850;2023-02-13T02:13:15;83246.53;;;2.00;44.85
64711;BME280;51139;45.626;6.850;2023-02-13T02:15:43;83255.84;;;2.07;44.82
64711;BME280;51139;45.626;6.850;2023-02-13T02:32:39;83258.00;;;2.26;43.40
64711;BME280;51139;45.626;6.850;2023-02-13T02:35:26;83253.50;;;2.21;43.89
64711;BME280;51139;45.626;6.850;2023-02-13T02:38:13;83257.78;;;2.24;43.68
64711;BME280;51139;45.626;6.850;2023-02-13T02:47:05;83252.47;;;1.89;44.50
64711;BME280;51139;45.626;6.850;2023-02-13T02:49:59;83255.28;;;1.86;44.25
64711;BME280;51139;45.626;6.850;2023-02-13T02:55:26;83260.75;;;1.88;44.46
64711;BME280;51139;45.626;6.850;2023-02-13T02:58:36;83258.75;;;1.60;45.44
64711;BME280;51139;45.626;6.850;2023-02-13T03:01:24;83260.25;;;1.29;46.64
64711;BME280;51139;45.626;6.850;2023-02-13T03:04:18;83270.69;;;1.23;46.99
64711;BME280;51139;45.626;6.850;2023-02-13T03:07:08;83264.34;;;1.36;46.92
64711;BME280;51139;45.626;6.850;2023-02-13T03:09:40;83278.53;;;1.29;46.68
64711;BME280;51139;45.626;6.850;2023-02-13T03:12:32;83269.38;;;1.45;45.99
64711;BME280;51139;45.626;6.850;2023-02-13T03:15:19;83279.97;;;1.30;47.22
64711;BME280;51139;45.626;6.850;2023-02-13T03:17:45;83274.78;;;1.36;46.37
64711;BME280;51139;45.626;6.850;2023-02-13T03:20:54;83272.13;;;1.30;46.57
64711;BME280;51139;45.626;6.850;2023-02-13T03:24:01;83274.72;;;1.30;46.70
64711;BME280;51139;45.626;6.850;2023-02-13T03:26:37;83278.88;;;1.48;46.27
64711;BME280;51139;45.626;6.850;2023-02-13T03:35:33;83285.19;;;1.30;47.13
64711;BME280;51139;45.626;6.850;2023-02-13T03:38:26;83287.13;;;1.35;46.86
64711;BME280;51139;45.626;6.850;2023-02-13T03:41:03;83279.09;;;1.44;46.52
64711;BME280;51139;45.626;6.850;2023-02-13T03:46:23;83288.97;;;1.29;46.88
64711;BME280;51139;45.626;6.850;2023-02-13T03:48:49;83290.56;;;1.15;47.22
64711;BME280;51139;45.626;6.850;2023-02-13T03:51:38;83301.47;;;1.13;47.24
64711;BME280;51139;45.626;6.850;2023-02-13T03:54:43;83303.38;;;1.13;47.18
64711;BME280;51139;45.626;6.850;2023-02-13T03:57:28;83294.72;;;1.01;47.69
64711;BME280;51139;45.626;6.850;2023-02-13T04:00:16;83297.56;;;0.97;47.59
64711;BME280;51139;45.626;6.850;2023-02-13T04:05:21;83298.16;;;1.13;46.97
64711;BME280;51139;45.626;6.850;2023-02-13T04:07:48;83300.06;;;1.18;46.85
64711;BME280;51139;45.626;6.850;2023-02-13T04:10:16;83297.91;;;1.16;47.10
64711;BME280;51139;45.626;6.850;2023-02-13T04:15:41;83299.28;;;1.06;47.49
64711;BME280;51139;45.626;6.850;2023-02-13T04:20:37;83296.56;;;1.27;46.85
64711;BME280;51139;45.626;6.850;2023-02-13T04:23:05;83302.00;;;1.23;47.07
64711;BME280;51139;45.626;6.850;2023-02-13T04:25:31;83299.34;;;1.17;46.54
64711;BME280;51139;45.626;6.850;2023-02-13T04:27:57;83301.97;;;1.17;46.84
64711;BME280;51139;45.626;6.850;2023-02-13T04:30:22;83297.22;;;1.22;46.15
64711;BME280;51139;45.626;6.850;2023-02-13T04:32:48;83297.22;;;1.22;45.97
64711;BME280;51139;45.626;6.850;2023-02-13T04:35:13;83300.22;;;1.03;46.90
64711;BME280;51139;45.626;6.850;2023-02-13T04:37:39;83302.13;;;1.08;47.87
64711;BME280;51139;45.626;6.850;2023-02-13T04:40:05;83296.50;;;1.15;47.28
64711;BME280;51139;45.626;6.850;2023-02-13T04:42:30;83302.44;;;1.16;47.60
64711;BME280;51139;45.626;6.850;2023-02-13T04:44:56;83292.44;;;1.14;47.75
64711;BME280;51139;45.626;6.850;2023-02-13T04:47:21;83295.38;;;1.28;46.93
64711;BME280;51139;45.626;6.850;2023-02-13T04:49:46;83301.03;;;1.21;46.74
64711;BME280;51139;45.626;6.850;2023-02-13T04:52:12;83302.25;;;1.25;46.96
64711;BME280;51139;45.626;6.850;2023-02-13T04:54:39;83303.13;;;1.16;47.01
64711;BME280;51139;45.626;6.850;2023-02-13T04:57:04;83300.63;;;1.34;46.03
64711;BME280;51139;45.626;6.850;2023-02-13T04:59:30;83309.16;;;1.28;46.04
64711;BME280;51139;45.626;6.850;2023-02-13T05:01:55;83298.78;;;1.40;45.79
64711;BME280;51139;45.626;6.850;2023-02-13T05:04:21;83303.78;;;1.43;45.83
64711;BME280;51139;45.626;6.850;2023-02-13T05:06:46;83306.66;;;1.45;45.69
64711;BME280;51139;45.626;6.850;2023-02-13T05:09:11;83315.19;;;1.46;45.74
64711;BME280;51139;45.626;6.850;2023-02-13T05:11:37;83307.94;;;1.24;46.11
64711;BME280;51139;45.626;6.850;2023-02-13T05:14:02;83308.84;;;1.15;46.27
64711;BME280;51139;45.626;6.850;2023-02-13T05:16:28;83312.91;;;1.22;46.17
64711;BME280;51139;45.626;6.850;2023-02-13T05:18:53;83309.31;;;1.57;44.23
64711;BME280;51139;45.626;6.850;2023-02-13T05:21:20;83307.16;;;1.50;45.00
64711;BME280;51139;45.626;6.850;2023-02-13T05:24:05;83305.16;;;1.33;45.84
64711;BME280;51139;45.626;6.850;2023-02-13T05:26:30;83315.59;;;1.33;45.83
64711;BME280;51139;45.626;6.850;2023-02-13T05:28:56;83307.28;;;1.35;45.15
64711;BME280;51139;45.626;6.850;2023-02-13T05:31:40;83307.59;;;1.42;45.15
64711;BME280;51139;45.626;6.850;2023-02-13T05:34:05;83302.13;;;1.46;44.88
64711;BME280;51139;45.626;6.850;2023-02-13T05:36:30;83310.84;;;1.31;46.09
64711;BME280;51139;45.626;6.850;2023-02-13T05:38:56;83308.41;;;1.22;45.90
64711;BME280;51139;45.626;6.850;2023-02-13T05:41:21;83306.50;;;1.23;45.87
64711;BME280;51139;45.626;6.850;2023-02-13T05:43:46;83308.34;;;1.11;45.87
64711;BME280;51139;45.626;6.850;2023-02-13T05:46:12;83305.94;;;1.07;46.13
64711;BME280;51139;45.626;6.850;2023-02-13T05:48:37;83308.53;;;1.07;46.17
64711;BME280;51139;45.626;6.850;2023-02-13T05:51:03;83309.94;;;1.02;45.97
64711;BME280;51139;45.626;6.850;2023-02-13T05:53:29;83310.47;;;1.12;46.38
64711;BME280;51139;45.626;6.850;2023-02-13T05:55:54;83307.09;;;1.06;45.83
64711;BME280;51139;45.626;6.850;2023-02-13T05:58:20;83310.94;;;1.11;46.46
64711;BME280;51139;45.626;6.850;2023-02-13T06:00:45;83314.69;;;1.04;46.11
64711;BME280;51139;45.626;6.850;2023-02-13T06:03:11;83314.75;;;1.15;46.38
64711;BME280;51139;45.626;6.850;2023-02-13T06:05:36;83314.97;;;1.12;45.90
64711;BME280;51139;45.626;6.850;2023-02-13T06:08:02;83313.06;;;1.12;45.48
64711;BME280;51139;45.626;6.850;2023-02-13T06:10:27;83312.44;;;1.23;44.92
64711;BME280;51139;45.626;6.850;2023-02-13T06:12:53;83308.84;;;1.21;46.04
64711;BME280;51139;45.626;6.850;2023-02-13T06:15:18;83312.56;;;1.08;45.76
64711;BME280;51139;45.626;6.850;2023-02-13T06:17:43;83314.75;;;1.15;45.79
64711;BME280;51139;45.626;6.850;2023-02-13T06:20:09;83318.97;;;1.07;46.51
64711;BME280;51139;45.626;6.850;2023-02-13T06:22:35;83314.91;;;1.00;46.65
64711;BME280;51139;45.626;6.850;2023-02-13T06:25:00;83313.94;;;0.98;46.61
64711;BME280;51139;45.626;6.850;2023-02-13T06:27:25;83315.19;;;1.08;46.36
64711;BME280;51139;45.626;6.850;2023-02-13T06:29:51;83320.22;;;1.12;46.11
64711;BME280;51139;45.626;6.850;2023-02-13T06:32:16;83314.66;;;0.98;46.28
64711;BME280;51139;45.626;6.850;2023-02-13T06:34:42;83323.44;;;1.01;46.82
64711;BME280;51139;45.626;6.850;2023-02-13T06:37:07;83318.03;;;1.05;46.54
64711;BME280;51139;45.626;6.850;2023-02-13T06:39:33;83322.50;;;1.04;46.22
64711;BME280;51139;45.626;6.850;2023-02-13T06:41:58;83321.41;;;1.16;45.89
64711;BME280;51139;45.626;6.850;2023-02-13T06:44:23;83314.94;;;1.06;45.53
64711;BME280;51139;45.626;6.850;2023-02-13T06:46:49;83318.53;;;1.09;45.42
64711;BME280;51139;45.626;6.850;2023-02-13T06:49:14;83324.75;;;1.17;45.62
64711;BME280;51139;45.626;6.850;2023-02-13T06:51:39;83325.94;;;1.16;44.99
64711;BME280;51139;45.626;6.850;2023-02-13T06:54:05;83324.69;;;1.11;45.76
64711;BME280;51139;45.626;6.850;2023-02-13T06:56:30;83331.91;;;1.28;45.55
64711;BME280;51139;45.626;6.850;2023-02-13T06:58:57;83329.25;;;1.54;44.58
64711;BME280;51139;45.626;6.850;2023-02-13T07:01:22;83339.41;;;1.47;45.45
64711;BME280;51139;45.626;6.850;2023-02-13T07:03:48;83333.34;;;1.23;46.50
64711;BME280;51139;45.626;6.850;2023-02-13T07:06:17;83335.22;;;1.23;46.05
64711;BME280;51139;45.626;6.850;2023-02-13T07:08:43;83334.09;;;1.29;45.87
64711;BME280;51139;45.626;6.850;2023-02-13T07:11:18;83337.63;;;1.26;45.46
64711;BME280;51139;45.626;6.850;2023-02-13T07:13:44;83335.47;;;1.25;45.57
64711;BME280;51139;45.626;6.850;2023-02-13T07:16:09;83347.25;;;1.14;45.69
64711;BME280;51139;45.626;6.850;2023-02-13T07:18:35;83343.09;;;1.28;45.39
64711;BME280;51139;45.626;6.850;2023-02-13T07:21:01;83349.88;;;1.47;45.13
64711;BME280;51139;45.626;6.850;2023-02-13T07:23:26;83350.38;;;1.56;43.97
64711;BME280;51139;45.626;6.850;2023-02-13T07:25:51;83345.06;;;1.39;45.88
64711;BME280;51139;45.626;6.850;2023-02-13T07:28:17;83352.25;;;1.50;45.52
64711;BME280;51139;45.626;6.850;2023-02-13T07:30:42;83356.19;;;1.78;45.05
64711;BME280;51139;45.626;6.850;2023-02-13T07:33:08;83354.47;;;2.12;44.64
64711;BME280;51139;45.626;6.850;2023-02-13T07:35:33;83356.94;;;2.39;43.65
64711;BME280;51139;45.626;6.850;2023-02-13T07:38:01;83348.47;;;2.72;43.29
64711;BME280;51139;45.626;6.850;2023-02-13T07:40:26;83349.00;;;3.33;42.45
64711;BME280;51139;45.626;6.850;2023-02-13T07:42:52;83356.63;;;3.48;42.28
64711;BME280;51139;45.626;6.850;2023-02-13T07:45:17;83351.84;;;3.64;42.37
64711;BME280;51139;45.626;6.850;2023-02-13T07:47:43;83356.59;;;3.88;41.61
64711;BME280;51139;45.626;6.850;2023-02-13T07:50:08;83353.63;;;4.32;40.87
64711;BME280;51139;45.626;6.850;2023-02-13T07:52:34;83349.31;;;4.34;40.10
64711;BME280;51139;45.626;6.850;2023-02-13T07:55:02;83346.44;;;4.44;40.57
64711;BME280;51139;45.626;6.850;2023-02-13T07:57:27;83359.00;;;4.62;39.85
64711;BME280;51139;45.626;6.850;2023-02-13T07:59:53;83353.91;;;4.87;39.90
64711;BME280;51139;45.626;6.850;2023-02-13T08:02:18;83354.06;;;5.01;39.58
64711;BME280;51139;45.626;6.850;2023-02-13T08:04:43;83354.22;;;5.14;38.85
64711;BME280;51139;45.626;6.850;2023-02-13T08:07:10;83357.28;;;5.54;38.59
64711;BME280;51139;45.626;6.850;2023-02-13T08:09:36;83351.72;;;5.94;36.67
64711;BME280;51139;45.626;6.850;2023-02-13T08:12:20;83354.13;;;6.48;36.09
64711;BME280;51139;45.626;6.850;2023-02-13T08:14:45;83353.00;;;6.87;35.56
64711;BME280;51139;45.626;6.850;2023-02-13T08:17:11;83351.19;;;7.34;34.70
64711;BME280;51139;45.626;6.850;2023-02-13T08:19:36;83353.78;;;7.20;34.95
64711;BME280;51139;45.626;6.850;2023-02-13T08:22:01;83351.13;;;7.39;34.12
64711;BME280;51139;45.626;6.850;2023-02-13T08:24:27;83345.53;;;8.41;32.61
64711;BME280;51139;45.626;6.850;2023-02-13T08:26:52;83348.13;;;8.73;32.11
64711;BME280;51139;45.626;6.850;2023-02-13T08:29:17;83349.69;;;9.65;30.31
64711;BME280;51139;45.626;6.850;2023-02-13T08:31:43;83350.81;;;9.35;28.87
64711;BME280;51139;45.626;6.850;2023-02-13T08:34:09;83353.09;;;8.64;30.01
64711;BME280;51139;45.626;6.850;2023-02-13T08:36:35;83342.72;;;9.54;30.09
64711;BME280;51139;45.626;6.850;2023-02-13T08:39:00;83353.75;;;10.01;28.73
64711;BME280;51139;45.626;6.850;2023-02-13T08:41:26;83352.53;;;11.23;27.57
64711;BME280;51139;45.626;6.850;2023-02-13T08:43:53;83351.84;;;12.43;27.22
64711;BME280;51139;45.626;6.850;2023-02-13T08:46:18;83359.19;;;10.59;27.67
64711;BME280;51139;45.626;6.850;2023-02-13T08:48:44;83355.63;;;9.92;29.08
64711;BME280;51139;45.626;6.850;2023-02-13T08:51:11;83355.63;;;9.58;30.01
64711;BME280;51139;45.626;6.850;2023-02-13T08:53:38;83357.47;;;9.49;30.03
64711;BME280;51139;45.626;6.850;2023-02-13T08:56:04;83353.25;;;10.95;29.72
64711;BME280;51139;45.626;6.850;2023-02-13T08:58:30;83349.31;;;12.06;27.84
64711;BME280;51139;45.626;6.850;2023-02-13T09:00:56;83351.59;;;11.50;28.31
64711;BME280;51139;45.626;6.850;2023-02-13T09:03:22;83359.84;;;11.38;26.85
64711;BME280;51139;45.626;6.850;2023-02-13T09:05:48;83354.81;;;11.64;26.50
64711;BME280;51139;45.626;6.850;2023-02-13T09:08:14;83351.63;;;12.10;26.28
64711;BME280;51139;45.626;6.850;2023-02-13T09:10:40;83346.50;;;12.20;26.06
64711;BME280;51139;45.626;6.850;2023-02-13T09:13:08;83348.84;;;12.54;25.42
64711;BME280;51139;45.626;6.850;2023-02-13T09:15:33;83360.47;;;11.23;27.63
64711;BME280;51139;45.626;6.850;2023-02-13T09:17:58;83355.75;;;12.42;26.74
64711;BME280;51139;45.626;6.850;2023-02-13T09:20:24;83356.81;;;12.78;25.45
64711;BME280;51139;45.626;6.850;2023-02-13T09:22:49;83358.75;;;13.08;25.79
64711;BME280;51139;45.626;6.850;2023-02-13T09:25:15;83352.78;;;13.64;24.33
64711;BME280;51139;45.626;6.850;2023-02-13T09:27:40;83353.34;;;13.63;24.61
64711;BME280;51139;45.626;6.850;2023-02-13T09:30:07;83353.03;;;13.99;24.32
64711;BME280;51139;45.626;6.850;2023-02-13T09:32:34;83352.41;;;15.08;23.46
64711;BME280;51139;45.626;6.850;2023-02-13T09:34:59;83358.22;;;14.89;23.69
64711;BME280;51139;45.626;6.850;2023-02-13T09:37:25;83362.19;;;15.31;22.50
64711;BME280;51139;45.626;6.850;2023-02-13T09:39:51;83359.03;;;14.99;22.39
64711;BME280;51139;45.626;6.850;2023-02-13T09:42:21;83356.00;;;13.70;25.63
64711;BME280;51139;45.626;6.850;2023-02-13T09:44:51;83357.94;;;13.62;25.69
64711;BME280;51139;45.626;6.850;2023-02-13T09:47:37;83358.75;;;14.62;23.45
64711;BME280;51139;45.626;6.850;2023-02-13T09:50:17;83360.13;;;14.38;24.21
64711;BME280;51139;45.626;6.850;2023-02-13T09:52:48;83355.44;;;14.54;24.66
64711;BME280;51139;45.626;6.850;2023-02-13T10:00:53;83358.69;;;14.04;24.71
64711;BME280;51139;45.626;6.850;2023-02-13T10:03:27;83366.56;;;11.39;27.06
64711;BME280;51139;45.626;6.850;2023-02-13T10:06:29;83366.41;;;11.45;28.62
64711;BME280;51139;45.626;6.850;2023-02-13T10:12:00;83370.09;;;11.42;29.04
64711;BME280;51139;45.626;6.850;2023-02-13T10:14:52;83361.88;;;11.17;28.91
64711;BME280;51139;45.626;6.850;2023-02-13T10:18:11;83367.94;;;11.70;28.37
64711;BME280;51139;45.626;6.850;2023-02-13T10:20:36;83366.09;;;11.49;30.45
64711;BME280;51139;45.626;6.850;2023-02-13T10:23:27;83366.88;;;11.65;29.77
64711;BME280;51139;45.626;6.850;2023-02-13T10:26:03;83364.72;;;11.27;27.05
64711;BME280;51139;45.626;6.850;2023-02-13T10:28:47;83360.81;;;11.20;28.05
64711;BME280;51139;45.626;6.850;2023-02-13T10:31:37;83366.59;;;11.11;27.78
64711;BME280;51139;45.626;6.850;2023-02-13T10:34:05;83371.16;;;11.39;27.81
64711;BME280;51139;45.626;6.850;2023-02-13T10:36:39;83371.91;;;11.47;27.42
64711;BME280;51139;45.626;6.850;2023-02-13T10:58:39;83355.44;;;11.41;26.10
64711;BME280;51139;45.626;6.850;2023-02-13T11:01:00;83362.19;;;11.50;27.70
64711;BME280;51139;45.626;6.850;2023-02-13T11:03:28;83357.88;;;11.31;28.90
64711;BME280;51139;45.626;6.850;2023-02-13T11:05:55;83361.75;;;11.30;27.66
64711;BME280;51139;45.626;6.850;2023-02-13T11:08:24;83350.22;;;11.20;29.40
64711;BME280;51139;45.626;6.850;2023-02-13T11:10:51;83351.03;;;11.07;31.19
64711;BME280;51139;45.626;6.850;2023-02-13T11:13:22;83345.72;;;11.07;30.16
64711;BME280;51139;45.626;6.850;2023-02-13T11:15:59;83349.75;;;11.37;28.88
64711;BME280;51139;45.626;6.850;2023-02-13T11:18:28;83348.84;;;10.98;31.57
64711;BME280;51139;45.626;6.850;2023-02-13T11:26:01;83340.72;;;10.95;29.42
64711;BME280;51139;45.626;6.850;2023-02-13T11:28:30;83343.78;;;10.49;27.93
64711;BME280;51139;45.626;6.850;2023-02-13T11:31:20;83341.41;;;10.67;29.96
64711;BME280;51139;45.626;6.850;2023-02-13T11:33:46;83341.22;;;10.94;28.60
64711;BME280;51139;45.626;6.850;2023-02-13T11:36:37;83347.25;;;10.44;30.84
64711;BME280;51139;45.626;6.850;2023-02-13T11:39:20;83336.34;;;10.48;31.53
64711;BME280;51139;45.626;6.850;2023-02-13T11:41:46;83339.41;;;10.39;31.57
64711;BME280;51139;45.626;6.850;2023-02-13T11:44:26;83347.38;;;10.60;29.30
64711;BME280;51139;45.626;6.850;2023-02-13T11:46:54;83347.50;;;9.56;30.12
64711;BME280;51139;45.626;6.850;2023-02-13T11:51:56;83333.41;;;9.26;34.74
64711;BME280;51139;45.626;6.850;2023-02-13T11:54:35;83337.88;;;10.01;33.11
64711;BME280;51139;45.626;6.850;2023-02-13T11:59:43;83334.31;;;9.77;31.66
64711;BME280;51139;45.626;6.850;2023-02-13T12:02:16;83336.03;;;8.51;30.39
64711;BME280;51139;45.626;6.850;2023-02-13T12:04:43;83336.63;;;8.98;29.98
64711;BME280;51139;45.626;6.850;2023-02-13T12:09:54;83329.03;;;9.98;28.28
64711;BME280;51139;45.626;6.850;2023-02-13T12:12:26;83329.06;;;9.63;30.21
64711;BME280;51139;45.626;6.850;2023-02-13T12:14:54;83322.91;;;9.47;31.97
64711;BME280;51139;45.626;6.850;2023-02-13T12:17:25;83325.59;;;9.69;31.29
64711;BME280;51139;45.626;6.850;2023-02-13T12:19:52;83322.91;;;8.86;30.61
64711;BME280;51139;45.626;6.850;2023-02-13T12:30:53;83317.47;;;9.67;29.92
64711;BME280;51139;45.626;6.850;2023-02-13T12:33:29;83317.84;;;9.36;34.89
64711;BME280;51139;45.626;6.850;2023-02-13T12:47:15;83308.66;;;9.51;34.24
64711;BME280;51139;45.626;6.850;2023-02-13T12:52:51;83304.66;;;9.57;31.54
64711;BME280;51139;45.626;6.850;2023-02-13T12:56:22;83298.84;;;9.59;29.52
64711;BME280;51139;45.626;6.850;2023-02-13T13:04:03;83290.50;;;9.89;30.98
64711;BME280;51139;45.626;6.850;2023-02-13T13:07:06;83296.97;;;9.81;29.85
64711;BME280;51139;45.626;6.850;2023-02-13T13:20:33;83289.34;;;9.42;28.79
64711;BME280;51139;45.626;6.850;2023-02-13T13:28:40;83273.72;;;9.31;31.13
64711;BME280;51139;45.626;6.850;2023-02-13T13:31:08;83281.50;;;9.50;33.29
64711;BME280;51139;45.626;6.850;2023-02-13T13:33:34;83272.72;;;8.45;28.58
64711;BME280;51139;45.626;6.850;2023-02-13T13:36:18;83275.56;;;8.21;30.63
64711;BME280;51139;45.626;6.850;2023-02-13T13:44:11;83264.69;;;8.78;31.51
64711;BME280;51139;45.626;6.850;2023-02-13T13:46:53;83271.59;;;8.68;33.15
64711;BME280;51139;45.626;6.850;2023-02-13T13:49:36;83272.22;;;8.87;31.37
64711;BME280;51139;45.626;6.850;2023-02-13T13:52:27;83274.75;;;8.12;28.54
64711;BME280;51139;45.626;6.850;2023-02-13T13:54:55;83270.38;;;8.42;29.20
64711;BME280;51139;45.626;6.850;2023-02-13T13:57:25;83272.00;;;8.45;29.74
64711;BME280;51139;45.626;6.850;2023-02-13T13:59:56;83272.44;;;9.11;29.33
64711;BME280;51139;45.626;6.850;2023-02-13T14:07:50;83272.09;;;7.99;29.62
64711;BME280;51139;45.626;6.850;2023-02-13T14:13:37;83274.84;;;8.07;28.50
64711;BME280;51139;45.626;6.850;2023-02-13T14:16:04;83270.00;;;8.51;29.37
64711;BME280;51139;45.626;6.850;2023-02-13T14:18:31;83264.47;;;9.24;28.95
64711;BME280;51139;45.626;6.850;2023-02-13T14:20:59;83269.91;;;9.53;29.61
64711;BME280;51139;45.626;6.850;2023-02-13T14:28:34;83266.66;;;9.12;30.54
64711;BME280;51139;45.626;6.850;2023-02-13T14:31:14;83262.72;;;9.40;28.30
64711;BME280;51139;45.626;6.850;2023-02-13T14:33:56;83258.84;;;9.07;28.60
64711;BME280;51139;45.626;6.850;2023-02-13T14:36:27;83263.28;;;8.90;29.46
64711;BME280;51139;45.626;6.850;2023-02-13T14:39:07;83265.72;;;8.08;28.23
64711;BME280;51139;45.626;6.850;2023-02-13T14:41:59;83264.03;;;8.51;28.40
64711;BME280;51139;45.626;6.850;2023-02-13T14:44:47;83264.91;;;9.28;27.59
64711;BME280;51139;45.626;6.850;2023-02-13T14:47:32;83260.94;;;8.06;30.60
64711;BME280;51139;45.626;6.850;2023-02-13T14:50:03;83262.72;;;9.05;30.36
64711;BME280;51139;45.626;6.850;2023-02-13T14:52:41;83255.66;;;8.20;28.19
64711;BME280;51139;45.626;6.850;2023-02-13T14:58:04;83257.56;;;9.00;27.63
64711;BME280;51139;45.626;6.850;2023-02-13T15:00:40;83247.63;;;8.66;29.25
64711;BME280;51139;45.626;6.850;2023-02-13T15:06:10;83247.09;;;8.94;27.37
64711;BME280;51139;45.626;6.850;2023-02-13T15:08:45;83240.75;;;9.11;27.20
64711;BME280;51139;45.626;6.850;2023-02-13T15:11:34;83250.78;;;8.24;27.85
64711;BME280;51139;45.626;6.850;2023-02-13T15:14:17;83249.53;;;8.92;28.82
64711;BME280;51139;45.626;6.850;2023-02-13T15:16:45;83240.75;;;8.49;29.06
64711;BME280;51139;45.626;6.850;2023-02-13T15:19:15;83238.13;;;8.97;28.94
64711;BME280;51139;45.626;6.850;2023-02-13T15:21:54;83251.69;;;9.15;29.35
64711;BME280;51139;45.626;6.850;2023-02-13T15:24:21;83240.44;;;9.14;28.50
64711;BME280;51139;45.626;6.850;2023-02-13T15:27:01;83236.56;;;8.81;28.84
64711;BME280;51139;45.626;6.850;2023-02-13T15:29:28;83240.41;;;8.80;28.66
64711;BME280;51139;45.626;6.850;2023-02-13T15:31:53;83243.34;;;8.76;30.31
64711;BME280;51139;45.626;6.850;2023-02-13T15:34:30;83243.97;;;7.42;29.38
64711;BME280;51139;45.626;6.850;2023-02-13T15:36:59;83251.56;;;7.78;28.62
64711;BME280;51139;45.626;6.850;2023-02-13T15:39:29;83247.72;;;7.33;30.38
64711;BME280;51139;45.626;6.850;2023-02-13T15:41:57;83249.94;;;7.29;29.86
64711;BME280;51139;45.626;6.850;2023-02-13T15:44:32;83235.72;;;7.19;29.33
64711;BME280;51139;45.626;6.850;2023-02-13T15:47:15;83247.38;;;7.23;30.06
64711;BME280;51139;45.626;6.850;2023-02-13T15:49:43;83238.50;;;7.07;31.59
64711;BME280;51139;45.626;6.850;2023-02-13T15:52:21;83241.41;;;7.04;29.79
64711;BME280;51139;45.626;6.850;2023-02-13T15:54:51;83248.16;;;6.66;30.93
64711;BME280;51139;45.626;6.850;2023-02-13T15:57:17;83236.88;;;6.85;31.00
64711;BME280;51139;45.626;6.850;2023-02-13T15:59:43;83242.94;;;6.61;30.81